Time;durP1;ratioP1;P1;durP2;ratioP2;P2;SDS_P1;SDS_P2;PMS_P1;PMS_P2;Temp;Humidity;BMP_temperature;BMP_pressure;BME280_temperature;BME280_humidity;BME280_pressure;Samples;Min_cycle;Max_cycle;Signal;HPM_P1;HPM_P2
2023/11/03 00:01:10;;;;;;;5.55;1.65;;;;;;;8.42;80.17;95672.09;5069831;28;20047;-84
2023/11/03 00:03:36;;;;;;;4.50;1.63;;;;;;;8.73;81.64;95662.09;5063027;28;20032;-83
2023/11/03 00:06:03;;;;;;;5.28;1.70;;;;;;;8.26;80.92;95647.84;5087216;28;20024;-83
2023/11/03 00:08:30;;;;;;;6.88;1.90;;;;;;;8.85;80.40;95662.22;5062753;28;20091;-83
2023/11/03 00:11:00;;;;;;;5.38;1.40;;;;;;;9.06;80.18;95653.25;5080029;28;20063;-83
2023/11/03 00:13:25;;;;;;;3.83;1.23;;;;;;;8.80;79.79;95641.88;5069391;28;20036;-83
2023/11/03 00:15:51;;;;;;;12.07;3.38;;;;;;;8.82;79.59;95629.06;5024208;28;1121598;-83
2023/11/03 00:18:16;;;;;;;5.07;1.65;;;;;;;8.97;79.56;95617.94;5058809;28;20484;-83
2023/11/03 00:20:41;;;;;;;8.05;2.42;;;;;;;8.75;78.52;95626.13;5081102;28;20028;-83
2023/11/03 00:23:07;;;;;;;3.38;1.67;;;;;;;8.77;79.79;95629.25;5049770;28;20020;-83
2023/11/03 00:25:33;;;;;;;7.75;2.10;;;;;;;8.64;79.74;95637.38;5088659;28;20040;-83
2023/11/03 00:27:59;;;;;;;5.70;1.70;;;;;;;8.84;78.78;95623.44;5088327;28;20046;-83
2023/11/03 00:30:24;;;;;;;6.15;2.58;;;;;;;8.45;78.79;95619.13;5084439;28;20095;-83
2023/11/03 00:32:49;;;;;;;4.60;1.70;;;;;;;8.45;78.87;95623.63;5084751;28;20092;-83
2023/11/03 00:35:16;;;;;;;7.50;1.98;;;;;;;8.47;79.29;95632.88;5083009;28;20051;-83
2023/11/03 00:37:41;;;;;;;11.55;2.33;;;;;;;8.54;78.27;95641.13;5070029;28;20028;-83
2023/11/03 00:40:11;;;;;;;7.53;1.83;;;;;;;8.61;78.88;95630.81;5078536;28;20534;-83
2023/11/03 00:42:37;;;;;;;8.00;1.95;;;;;;;8.51;78.99;95623.16;5083524;28;20024;-83
2023/11/03 00:45:05;;;;;;;7.97;2.13;;;;;;;8.78;78.93;95645.97;5079505;28;20165;-83
2023/11/03 00:47:30;;;;;;;9.68;2.47;;;;;;;8.08;76.84;95648.91;5063018;28;20027;-83
2023/11/03 00:49:56;;;;;;;8.02;2.10;;;;;;;8.41;78.97;95652.69;5067293;28;20020;-83
2023/11/03 00:52:22;;;;;;;10.38;1.75;;;;;;;8.02;77.25;95658.09;5085489;28;20163;-83
2023/11/03 00:54:47;;;;;;;10.60;2.60;;;;;;;8.52;78.86;95645.22;5050497;28;20119;-83
2023/11/03 00:57:12;;;;;;;7.35;2.50;;;;;;;8.42;78.71;95656.16;5084077;28;20094;-83
2023/11/03 00:59:38;;;;;;;9.57;1.85;;;;;;;8.33;78.45;95653.50;5085203;28;20020;-83
2023/11/03 01:02:04;;;;;;;11.63;2.40;;;;;;;8.44;78.69;95661.94;5082840;28;20487;-83
2023/11/03 01:04:29;;;;;;;4.43;2.28;;;;;;;8.21;77.94;95650.66;5068852;28;20043;-83
2023/11/03 01:06:55;;;;;;;7.55;2.10;;;;;;;8.33;78.36;95656.16;5071634;28;20032;-83
2023/11/03 01:09:22;;;;;;;8.70;2.15;;;;;;;8.25;77.99;95632.97;5084384;28;20052;-83
2023/11/03 01:11:47;;;;;;;7.95;1.90;;;;;;;8.40;78.36;95640.53;5067235;28;20032;-83
2023/11/03 01:14:13;;;;;;;6.78;2.05;;;;;;;8.44;78.12;95638.00;5085394;28;20039;-83
2023/11/03 01:16:41;;;;;;;13.80;2.75;;;;;;;8.46;78.18;95631.28;5085329;28;20373;-83
2023/11/03 01:19:07;;;;;;;4.68;1.98;;;;;;;8.43;77.58;95639.88;5079327;28;20158;-84
2023/11/03 01:21:33;;;;;;;9.38;2.45;;;;;;;8.44;78.27;95659.28;5089495;28;20137;-83
2023/11/03 01:23:59;;;;;;;3.83;1.92;;;;;;;8.34;77.64;95654.28;5080777;28;20032;-83
2023/11/03 01:26:25;;;;;;;4.78;2.13;;;;;;;8.18;77.74;95646.72;5080107;28;20270;-83
2023/11/03 01:28:53;;;;;;;10.30;2.88;;;;;;;8.45;78.68;95658.97;5067888;28;20093;-83
2023/11/03 01:31:19;;;;;;;14.27;2.80;;;;;;;8.16;77.48;95646.25;5083625;28;20028;-83
2023/11/03 01:33:46;;;;;;;11.43;2.80;;;;;;;8.30;78.03;95643.47;5088101;28;20424;-83
2023/11/03 01:36:13;;;;;;;15.43;4.75;;;;;;;8.16;77.49;95643.59;5078751;28;20028;-83
2023/11/03 01:38:38;;;;;;;6.68;2.85;;;;;;;8.43;78.30;95657.72;5081681;28;20521;-83
2023/11/03 01:41:04;;;;;;;12.75;2.45;;;;;;;8.40;77.65;95663.66;5084529;28;20111;-83
2023/11/03 01:43:35;;;;;;;7.43;2.35;;;;;;;7.83;79.21;95661.03;5087348;28;20463;-82
2023/11/03 01:46:02;;;;;;;8.25;2.40;;;;;;;7.93;79.86;95652.00;5074188;28;20606;-83
2023/11/03 01:48:31;;;;;;;13.90;2.40;;;;;;;7.91;79.25;95646.19;5081564;28;20028;-83
2023/11/03 01:50:59;;;;;;;5.90;2.40;;;;;;;7.86;78.77;95646.38;5078948;28;20051;-83
2023/11/03 01:53:28;;;;;;;11.63;2.97;;;;;;;7.88;77.45;95665.41;5085135;28;20031;-83
2023/11/03 01:55:55;;;;;;;12.55;2.80;;;;;;;8.01;78.82;95669.81;5083938;28;20073;-83
2023/11/03 01:58:23;;;;;;;12.73;2.65;;;;;;;7.37;78.94;95664.16;5093497;28;20024;-83
2023/11/03 02:00:49;;;;;;;7.93;2.13;;;;;;;7.54;79.77;95682.00;5085537;28;20039;-83
2023/11/03 02:03:15;;;;;;;9.57;2.30;;;;;;;7.81;78.33;95673.84;5081527;28;20109;-83
2023/11/03 02:05:40;;;;;;;13.13;2.42;;;;;;;7.62;78.34;95677.81;5052338;28;20028;-83
2023/11/03 02:08:06;;;;;;;7.82;2.50;;;;;;;7.33;80.35;95702.19;5085516;28;20039;-83
2023/11/03 02:10:32;;;;;;;8.93;2.47;;;;;;;7.87;80.38;95687.75;5075593;28;20094;-83
2023/11/03 02:12:59;;;;;;;12.00;2.47;;;;;;;7.83;79.12;95694.75;5068762;28;20039;-83
2023/11/03 02:15:24;;;;;;;8.98;2.35;;;;;;;7.56;79.34;95688.56;5084773;28;20024;-83
2023/11/03 02:17:50;;;;;;;18.95;2.55;;;;;;;7.28;78.60;95697.81;5081873;28;20403;-83
2023/11/03 02:20:15;;;;;;;5.90;2.35;;;;;;;6.88;80.90;95703.34;5080844;28;20032;-83
2023/11/03 02:22:41;;;;;;;9.75;2.53;;;;;;;7.22;80.84;95708.84;5089235;28;20039;-83
2023/11/03 02:25:06;;;;;;;5.40;3.35;;;;;;;6.86;82.60;95679.00;5069001;28;20032;-83
2023/11/03 02:27:32;;;;;;;17.60;3.30;;;;;;;7.09;81.96;95697.22;5084451;28;20035;-83
2023/11/03 02:29:58;;;;;;;11.55;2.72;;;;;;;7.07;81.76;95696.75;5083184;28;20028;-83
2023/11/03 02:32:23;;;;;;;6.95;2.83;;;;;;;6.86;82.88;95689.59;5062441;28;20470;-84
2023/11/03 02:34:49;;;;;;;5.85;2.47;;;;;;;7.58;81.87;95707.63;5052772;28;20119;-83
2023/11/03 02:37:14;;;;;;;5.70;1.77;;;;;;;7.91;81.03;95696.66;5076995;28;20040;-83
2023/11/03 02:39:40;;;;;;;7.28;1.77;;;;;;;7.82;80.18;95699.28;5067917;28;20099;-83
2023/11/03 02:42:06;;;;;;;4.35;2.30;;;;;;;7.86;80.26;95702.91;5065388;28;20490;-84
2023/11/03 02:44:32;;;;;;;6.18;1.65;;;;;;;8.01;80.73;95715.75;5067831;28;20085;-83
2023/11/03 02:46:58;;;;;;;9.25;3.88;;;;;;;7.83;80.23;95698.19;5080415;28;20090;-84
2023/11/03 02:49:24;;;;;;;12.30;3.28;;;;;;;7.81;79.69;95704.91;5109420;28;20040;-83
2023/11/03 02:51:49;;;;;;;12.85;2.17;;;;;;;7.64;80.00;95704.84;5082782;28;20055;-83
2023/11/03 02:54:14;;;;;;;6.93;2.28;;;;;;;7.90;80.08;95697.75;5080940;28;20603;-83
2023/11/03 02:56:40;;;;;;;7.25;2.50;;;;;;;8.07;80.47;95693.28;5069142;28;20061;-83
2023/11/03 02:59:05;;;;;;;9.15;2.08;;;;;;;8.07;79.36;95697.78;5069823;28;20065;-83
2023/11/03 03:01:32;;;;;;;6.82;2.15;;;;;;;7.97;80.37;95692.78;5080412;28;20032;-83
2023/11/03 03:03:57;;;;;;;11.40;2.42;;;;;;;8.07;79.53;95693.28;5063633;28;20668;-83
2023/11/03 03:06:23;;;;;;;6.75;2.72;;;;;;;7.90;79.76;95692.44;5084127;28;20035;-82
2023/11/03 03:08:49;;;;;;;7.38;2.22;;;;;;;7.74;80.02;95683.31;5083523;28;20036;-83
2023/11/03 03:11:15;;;;;;;4.63;2.25;;;;;;;8.12;80.75;95679.06;5066439;28;20036;-83
2023/11/03 03:13:41;;;;;;;9.55;2.08;;;;;;;8.38;80.12;95676.47;5083632;28;20516;-83
2023/11/03 03:16:09;;;;;;;7.10;1.88;;;;;;;8.70;78.68;95679.44;5084428;28;20384;-82
2023/11/03 03:18:34;;;;;;;6.35;2.58;;;;;;;8.65;77.95;95674.28;5086063;28;20028;-82
2023/11/03 03:21:01;;;;;;;7.93;1.83;;;;;;;8.72;77.99;95671.94;5058462;28;20411;-83
2023/11/03 03:23:26;;;;;;;8.70;2.33;;;;;;;8.76;77.97;95656.91;5074087;28;20028;-83
2023/11/03 03:25:51;;;;;;;4.97;2.00;;;;;;;8.53;77.81;95668.81;5072237;28;20036;-82
2023/11/03 03:28:17;;;;;;;9.02;2.53;;;;;;;8.60;79.45;95663.03;5065458;28;20032;-83
2023/11/03 03:30:42;;;;;;;6.80;1.92;;;;;;;8.54;79.01;95665.06;5069844;28;20094;-83
2023/11/03 03:33:08;;;;;;;8.85;2.00;;;;;;;8.12;78.85;95617.97;5064416;28;20036;-83
2023/11/03 03:35:34;;;;;;;4.68;1.90;;;;;;;8.24;79.23;95645.47;5084580;28;20034;-83
2023/11/03 03:38:00;;;;;;;7.30;2.10;;;;;;;8.08;78.33;95656.88;5084100;28;20028;-83
2023/11/03 03:40:25;;;;;;;7.45;2.47;;;;;;;8.20;79.14;95652.50;5086028;28;20375;-83
2023/11/03 03:42:51;;;;;;;6.13;1.67;;;;;;;8.02;79.71;95671.38;5082219;28;20097;-83
2023/11/03 03:45:16;;;;;;;10.02;2.10;;;;;;;7.98;79.82;95678.41;5086957;28;20028;-83
2023/11/03 03:47:43;;;;;;;4.10;2.05;;;;;;;7.88;80.79;95673.38;5084638;28;20040;-83
2023/11/03 03:50:08;;;;;;;5.88;2.30;;;;;;;7.92;79.75;95682.28;5091956;28;20024;-83
2023/11/03 03:52:34;;;;;;;11.77;3.15;;;;;;;7.78;79.32;95694.88;5083733;28;20089;-82
2023/11/03 03:54:59;;;;;;;9.55;2.15;;;;;;;7.42;80.07;95695.06;5089901;28;20373;-83
2023/11/03 03:57:25;;;;;;;5.78;1.70;;;;;;;7.73;82.45;95703.00;5069084;28;20060;-83
2023/11/03 03:59:51;;;;;;;4.63;1.85;;;;;;;7.56;81.15;95688.56;5084578;28;20032;-83
2023/11/03 04:02:16;;;;;;;7.60;1.80;;;;;;;7.95;81.34;95690.41;5051459;28;20039;-83
2023/11/03 04:04:44;;;;;;;8.57;2.50;;;;;;;7.83;79.73;95697.41;5067359;28;20086;-82
2023/11/03 04:07:09;;;;;;;15.65;3.00;;;;;;;7.75;79.34;95701.63;5084602;28;20056;-83
2023/11/03 04:09:37;;;;;;;7.70;1.95;;;;;;;7.46;80.40;95699.47;5081964;28;20062;-83
2023/11/03 04:12:03;;;;;;;5.32;1.70;;;;;;;7.73;80.66;95700.34;5084298;28;20032;-83
2023/11/03 04:14:28;;;;;;;9.55;2.67;;;;;;;7.70;82.28;95701.75;5088040;28;20115;-83
2023/11/03 04:16:53;;;;;;;4.85;1.85;;;;;;;7.71;80.54;95711.25;5083138;28;20081;-83
2023/11/03 04:19:19;;;;;;;6.25;1.92;;;;;;;7.47;82.24;95714.28;5077311;28;20039;-83
2023/11/03 04:21:44;;;;;;;8.57;2.67;;;;;;;7.32;81.02;95709.38;5081341;28;20551;-83
2023/11/03 04:24:09;;;;;;;6.43;1.80;;;;;;;7.42;82.67;95703.81;5065741;28;20093;-82
2023/11/03 04:26:35;;;;;;;11.30;3.00;;;;;;;7.44;82.16;95703.50;5097121;28;20117;-83
2023/11/03 04:29:00;;;;;;;10.45;2.53;;;;;;;7.50;81.18;95708.38;5085901;28;20028;-83
2023/11/03 04:31:26;;;;;;;3.20;2.15;;;;;;;8.15;80.62;95710.31;5077001;28;20090;-83
2023/11/03 04:33:52;;;;;;;12.05;2.28;;;;;;;7.76;80.56;95708.47;5069824;28;20036;-83
2023/11/03 04:36:18;;;;;;;6.10;2.58;;;;;;;7.44;81.59;95712.25;5090195;28;20081;-83
2023/11/03 04:38:43;;;;;;;4.63;1.98;;;;;;;7.83;81.56;95713.34;5072029;28;20426;-83
2023/11/03 04:41:09;;;;;;;7.40;1.92;;;;;;;7.58;80.83;95707.63;5080510;28;20024;-83
2023/11/03 04:43:35;;;;;;;2.28;1.83;;;;;;;7.82;81.18;95706.47;5069496;28;20115;-83
2023/11/03 04:46:05;;;;;;;7.88;1.55;;;;;;;7.78;81.53;95708.94;5086658;28;20028;-83
2023/11/03 04:48:31;;;;;;;9.32;2.15;;;;;;;7.66;81.97;95711.41;5072033;28;20545;-83
2023/11/03 04:50:57;;;;;;;9.75;1.95;;;;;;;7.96;81.25;95709.78;5084852;28;20036;-83
2023/11/03 04:53:23;;;;;;;9.35;2.13;;;;;;;7.66;80.72;95711.41;5052394;28;20035;-83
2023/11/03 04:55:48;;;;;;;8.05;2.53;;;;;;;8.00;80.98;95718.69;5068900;28;20027;-83
2023/11/03 04:58:15;;;;;;;5.93;2.20;;;;;;;7.62;82.20;95715.78;5088166;28;20023;-83
2023/11/03 05:00:41;;;;;;;4.55;1.60;;;;;;;7.75;81.70;95717.53;5085249;28;20111;-83
2023/11/03 05:03:07;;;;;;;5.40;2.08;;;;;;;7.56;82.42;95714.31;5072951;28;20158;-84
2023/11/03 05:05:32;;;;;;;6.38;2.40;;;;;;;7.44;80.60;95720.22;5078606;28;20043;-83
2023/11/03 05:07:58;;;;;;;6.60;1.63;;;;;;;7.60;82.61;95725.88;5075148;28;20032;-83
2023/11/03 05:10:23;;;;;;;8.15;1.75;;;;;;;7.25;81.08;95709.00;5070891;28;20024;-84
2023/11/03 05:12:50;;;;;;;5.47;1.75;;;;;;;7.77;82.16;95719.88;5075763;28;20040;-84
2023/11/03 05:15:15;;;;;;;10.70;2.08;;;;;;;7.60;81.03;95709.97;5077140;28;20036;-84
2023/11/03 05:17:41;;;;;;;7.97;2.08;;;;;;;7.29;81.60;95715.28;5084296;28;20040;-83
2023/11/03 05:20:08;;;;;;;5.03;1.90;;;;;;;7.26;81.82;95709.78;5076224;28;20115;-83
2023/11/03 05:22:34;;;;;;;5.60;2.10;;;;;;;7.55;81.89;95718.06;5074058;28;20115;-83
2023/11/03 05:25:00;;;;;;;8.38;2.38;;;;;;;7.52;82.48;95713.38;5086113;28;20154;-83
2023/11/03 05:27:26;;;;;;;3.15;1.80;;;;;;;7.64;82.82;95705.63;5098858;27;20078;-84
2023/11/03 05:29:51;;;;;;;4.82;1.67;;;;;;;8.09;81.01;95695.59;5078408;28;20024;-83
2023/11/03 05:32:17;;;;;;;3.35;1.67;;;;;;;7.83;80.75;95694.75;5078987;28;20812;-83
2023/11/03 05:34:42;;;;;;;7.45;1.88;;;;;;;8.07;80.71;95692.47;5066895;28;20039;-83
2023/11/03 05:37:10;;;;;;;6.45;2.10;;;;;;;7.79;81.19;95696.47;5070641;28;20021;-83
2023/11/03 05:39:36;;;;;;;7.13;1.90;;;;;;;8.12;81.05;95702.97;5073021;28;20063;-82
2023/11/03 05:42:02;;;;;;;12.55;2.15;;;;;;;7.83;80.33;95695.53;5077931;28;20055;-82
2023/11/03 05:44:27;;;;;;;4.82;2.17;;;;;;;7.87;81.09;95708.97;5079440;28;20632;-83
2023/11/03 05:46:53;;;;;;;5.72;1.65;;;;;;;7.19;81.20;95696.19;5058820;28;20038;-83
2023/11/03 05:49:18;;;;;;;5.43;2.00;;;;;;;7.29;81.22;95704.69;5066150;28;20114;-83
2023/11/03 05:51:44;;;;;;;4.53;1.95;;;;;;;7.41;82.03;95706.75;5079899;28;20036;-84
2023/11/03 05:54:09;;;;;;;9.32;3.58;;;;;;;7.14;81.46;95691.78;5079538;28;20035;-83
2023/11/03 05:56:35;;;;;;;3.03;1.55;;;;;;;7.46;82.25;95711.94;5070458;28;20027;-82
2023/11/03 05:59:00;;;;;;;7.57;3.60;;;;;;;7.57;83.05;95723.84;5079586;28;20032;-83
2023/11/03 06:01:25;;;;;;;7.13;2.03;;;;;;;7.25;81.90;95714.31;5078807;28;20028;-82
2023/11/03 06:03:51;;;;;;;7.15;1.83;;;;;;;7.84;82.40;95696.34;5077173;28;20040;-83
2023/11/03 06:06:16;;;;;;;5.97;1.80;;;;;;;7.30;81.69;95700.94;5077617;28;20028;-82
2023/11/03 06:08:42;;;;;;;4.20;1.20;;;;;;;7.36;82.94;95697.06;5087099;28;20032;-82
2023/11/03 06:11:08;;;;;;;3.85;2.38;;;;;;;7.62;81.57;95702.50;5080811;28;20054;-83
2023/11/03 06:13:37;;;;;;;9.02;3.28;;;;;;;7.77;82.39;95717.22;5080628;28;20107;-82
2023/11/03 06:16:04;;;;;;;7.10;2.28;;;;;;;7.60;80.80;95712.63;5062340;28;20020;-83
2023/11/03 06:18:29;;;;;;;4.03;1.55;;;;;;;7.99;81.46;95707.31;5093342;28;20041;-83
2023/11/03 06:20:54;;;;;;;4.95;1.98;;;;;;;8.24;80.56;95727.06;5075510;28;20845;-83
2023/11/03 06:23:20;;;;;;;6.03;1.80;;;;;;;8.21;81.03;95719.72;5085555;28;20544;-83
2023/11/03 06:25:45;;;;;;;3.35;1.63;;;;;;;8.48;79.50;95711.50;5086241;28;20025;-83
2023/11/03 06:28:12;;;;;;;2.80;1.50;;;;;;;8.39;79.96;95716.00;5083980;28;20498;-83
2023/11/03 06:30:37;;;;;;;4.68;1.73;;;;;;;8.61;79.09;95736.34;5084396;28;20052;-83
2023/11/03 06:33:03;;;;;;;5.95;1.70;;;;;;;8.51;79.14;95742.78;5083227;28;20133;-83
2023/11/03 06:35:30;;;;;;;4.32;2.17;;;;;;;8.43;79.52;95732.88;5080171;28;20486;-83
2023/11/03 06:37:56;;;;;;;5.22;2.03;;;;;;;8.55;79.29;95740.25;5083085;28;20036;-83
2023/11/03 06:40:21;;;;;;;4.32;1.60;;;;;;;8.49;79.36;95758.25;5081111;28;20032;-83
2023/11/03 06:42:46;;;;;;;3.22;1.92;;;;;;;8.66;79.32;95768.91;5065834;28;20020;-83
2023/11/03 06:45:12;;;;;;;4.00;1.80;;;;;;;8.62;78.05;95762.66;5087828;28;20058;-83
2023/11/03 06:47:38;;;;;;;6.63;2.60;;;;;;;8.46;79.16;95769.50;5088622;28;20088;-83
2023/11/03 06:50:04;;;;;;;4.85;1.63;;;;;;;8.64;78.58;95771.09;5087953;28;20024;-83
2023/11/03 06:52:30;;;;;;;8.27;2.08;;;;;;;8.65;78.05;95782.50;5089436;28;20051;-82
2023/11/03 06:54:56;;;;;;;5.38;1.55;;;;;;;8.64;78.46;95781.72;5083919;28;20444;-83
2023/11/03 06:57:22;;;;;;;5.88;3.03;;;;;;;8.68;78.25;95781.88;5091147;28;20116;-83
2023/11/03 06:59:48;;;;;;;3.85;1.45;;;;;;;8.63;78.59;95756.22;5086737;28;20579;-83
2023/11/03 07:02:13;;;;;;;7.57;2.00;;;;;;;8.62;78.11;95762.66;5080690;28;20078;-83
2023/11/03 07:04:40;;;;;;;5.22;1.92;;;;;;;8.58;77.88;95761.72;5084172;28;20028;-83
2023/11/03 07:07:05;;;;;;;11.73;2.00;;;;;;;8.66;77.80;95768.13;5090099;28;20034;-83
2023/11/03 07:09:31;;;;;;;4.05;1.50;;;;;;;8.63;78.12;95769.50;5093555;28;20027;-83
2023/11/03 07:11:56;;;;;;;4.95;1.50;;;;;;;8.58;77.44;95775.00;5091329;28;20036;-83
2023/11/03 07:14:24;;;;;;;5.72;1.75;;;;;;;8.56;77.67;95777.16;5080702;28;21674;-83
2023/11/03 07:16:52;;;;;;;6.22;1.77;;;;;;;8.48;77.38;95782.47;5094493;28;20031;-83
2023/11/03 07:19:17;;;;;;;6.43;1.13;;;;;;;8.53;77.22;95791.09;5079061;28;20036;-83
2023/11/03 07:21:51;;;;;;;4.57;2.38;;;;;;;8.50;76.91;95794.34;5075785;28;20048;-83
2023/11/03 07:24:17;;;;;;;5.18;1.60;;;;;;;8.47;76.98;95784.34;5074284;28;21241;-82
2023/11/03 07:26:43;;;;;;;3.55;1.15;;;;;;;8.41;77.19;95782.16;5077807;28;20542;-83
2023/11/03 07:29:09;;;;;;;3.22;1.60;;;;;;;8.59;76.91;95810.31;5086864;28;20035;-83
2023/11/03 07:31:36;;;;;;;4.50;1.58;;;;;;;8.48;77.04;95796.53;5090461;28;20028;-83
2023/11/03 07:34:01;;;;;;;3.72;1.40;;;;;;;8.58;76.56;95817.53;5066078;28;20012;-82
2023/11/03 07:36:26;;;;;;;4.45;1.77;;;;;;;8.56;77.35;95816.28;5089714;28;20497;-83
2023/11/03 07:38:52;;;;;;;6.30;1.20;;;;;;;8.59;76.74;95815.63;5082837;28;20446;-83
2023/11/03 07:41:17;;;;;;;6.68;2.40;;;;;;;8.58;76.75;95820.19;5083286;28;20040;-82
2023/11/03 07:43:43;;;;;;;6.63;1.30;;;;;;;8.42;76.17;95804.97;5075895;28;20036;-82
2023/11/03 07:46:09;;;;;;;6.18;1.48;;;;;;;8.53;76.59;95807.03;5084722;28;20497;-82
2023/11/03 07:48:36;;;;;;;6.80;1.88;;;;;;;8.62;76.28;95820.34;5067657;28;20034;-83
2023/11/03 07:51:02;;;;;;;8.63;2.85;;;;;;;8.56;76.55;95802.97;5074688;28;20033;-82
2023/11/03 07:53:27;;;;;;;5.72;1.58;;;;;;;8.57;76.57;95805.31;5073740;28;20056;-83
2023/11/03 07:55:54;;;;;;;1.88;1.13;;;;;;;8.55;76.54;95807.50;5074185;28;20935;-83
2023/11/03 07:58:20;;;;;;;4.15;1.42;;;;;;;8.63;76.72;95808.59;5078179;28;20032;-82
2023/11/03 08:00:49;;;;;;;4.00;1.15;;;;;;;8.62;76.94;95804.41;5090446;28;20372;-83
2023/11/03 08:03:15;;;;;;;6.78;2.17;;;;;;;8.62;76.13;95801.75;5093993;28;20020;-82
2023/11/03 08:05:41;;;;;;;3.45;1.50;;;;;;;8.68;76.07;95814.56;5073550;28;20039;-83
2023/11/03 08:08:07;;;;;;;10.50;1.38;;;;;;;8.63;76.60;95816.56;5079726;28;20039;-82
2023/11/03 08:10:33;;;;;;;3.92;1.77;;;;;;;8.72;76.53;95820.03;5089616;28;20039;-83
2023/11/03 08:12:58;;;;;;;5.40;1.35;;;;;;;8.73;76.07;95809.13;5079352;28;20047;-83
2023/11/03 08:15:24;;;;;;;3.42;1.45;;;;;;;8.70;75.78;95809.72;5068901;28;20032;-83
2023/11/03 08:17:49;;;;;;;4.07;1.15;;;;;;;8.74;76.12;95810.66;5071864;28;20024;-83
2023/11/03 08:20:15;;;;;;;7.35;1.42;;;;;;;8.65;76.38;95788.59;5100601;28;20021;-83
2023/11/03 08:22:44;;;;;;;7.28;1.73;;;;;;;8.68;76.01;95803.16;5082994;28;20024;-83
2023/11/03 08:25:11;;;;;;;2.45;1.25;;;;;;;8.64;75.79;95802.22;5070199;28;20043;-82
2023/11/03 08:27:37;;;;;;;7.57;1.70;;;;;;;8.59;76.02;95799.69;5087305;28;20028;-82
2023/11/03 08:30:04;;;;;;;2.70;1.52;;;;;;;8.57;75.49;95807.19;5084787;28;20030;-83
2023/11/03 08:32:30;;;;;;;5.88;1.80;;;;;;;8.61;76.27;95821.41;5093600;28;20043;-83
2023/11/03 08:34:56;;;;;;;5.35;1.83;;;;;;;8.66;75.40;95822.06;5083792;28;20024;-83
2023/11/03 08:37:24;;;;;;;3.85;1.48;;;;;;;8.63;76.09;95829.88;5081966;28;20073;-83
2023/11/03 08:39:51;;;;;;;4.63;1.40;;;;;;;8.68;75.74;95851.00;5075744;28;20533;-83
2023/11/03 08:42:16;;;;;;;3.30;1.15;;;;;;;8.72;76.52;95852.75;5071896;28;20487;-83
2023/11/03 08:44:42;;;;;;;5.63;1.98;;;;;;;8.63;76.18;95845.81;5092346;28;20080;-83
2023/11/03 08:47:08;;;;;;;5.38;1.67;;;;;;;8.67;76.22;95854.78;5088497;28;20063;-83
2023/11/03 08:49:34;;;;;;;6.28;1.42;;;;;;;8.61;75.90;95851.47;5072768;28;20051;-83
2023/11/03 08:51:59;;;;;;;4.85;1.23;;;;;;;8.67;75.93;95847.56;5090470;28;20024;-83
2023/11/03 08:54:25;;;;;;;5.28;2.30;;;;;;;8.71;76.46;95845.88;5080636;28;20028;-83
2023/11/03 08:56:50;;;;;;;5.50;1.75;;;;;;;8.51;76.31;95835.81;5073945;28;20540;-82
2023/11/03 08:59:16;;;;;;;2.85;1.30;;;;;;;8.61;76.04;95846.13;5079871;28;20042;-82
2023/11/03 09:01:44;;;;;;;5.70;1.85;;;;;;;8.65;76.12;95849.75;5068283;28;20117;-82
2023/11/03 09:04:10;;;;;;;5.75;1.52;;;;;;;8.53;76.77;95854.09;5080717;28;20025;-82
2023/11/03 09:06:36;;;;;;;1.90;1.05;;;;;;;8.66;76.47;95871.81;5083994;28;20106;-82
2023/11/03 09:09:02;;;;;;;6.70;1.85;;;;;;;8.67;76.61;95884.00;5090082;28;20107;-83
2023/11/03 09:11:28;;;;;;;4.95;1.40;;;;;;;8.66;76.39;95885.88;5067149;28;20454;-82
2023/11/03 09:13:54;;;;;;;7.60;1.75;;;;;;;8.62;76.96;95884.94;5084622;28;20116;-82
2023/11/03 09:16:21;;;;;;;3.72;1.60;;;;;;;8.74;76.22;95874.47;5083954;28;20108;-83
2023/11/03 09:18:48;;;;;;;5.05;1.90;;;;;;;8.58;76.63;95861.94;5087981;28;20028;-83
2023/11/03 09:21:14;;;;;;;5.07;1.70;;;;;;;8.77;76.29;95881.06;5086434;28;20024;-83
2023/11/03 09:23:40;;;;;;;9.70;1.80;;;;;;;8.58;76.90;95877.88;5081859;28;20043;-83
2023/11/03 09:26:07;;;;;;;2.78;1.02;;;;;;;8.71;76.43;95888.41;5090007;28;20024;-82
2023/11/03 09:28:34;;;;;;;4.03;1.80;;;;;;;8.69;76.98;95890.56;5085720;28;20036;-83
2023/11/03 09:31:00;;;;;;;4.63;1.40;;;;;;;8.64;76.48;95882.75;5074113;28;20036;-83
2023/11/03 09:33:26;;;;;;;11.50;2.38;;;;;;;8.74;76.18;95882.47;5086009;28;20044;-83
2023/11/03 09:35:51;;;;;;;6.68;1.80;;;;;;;8.79;76.71;95903.59;5084509;28;20047;-84
2023/11/03 09:38:19;;;;;;;8.07;1.90;;;;;;;8.78;76.58;95891.38;5079485;28;20077;-84
2023/11/03 09:40:46;;;;;;;6.15;1.85;;;;;;;8.78;77.25;95887.97;5084454;28;20032;-84
2023/11/03 09:43:13;;;;;;;3.47;1.70;;;;;;;8.69;76.88;95874.63;5087031;28;20033;-84
2023/11/03 09:45:39;;;;;;;8.43;2.38;;;;;;;8.72;77.00;95878.53;5086690;28;20032;-83
2023/11/03 09:48:08;;;;;;;6.65;1.70;;;;;;;8.72;76.21;95865.25;5081109;28;20108;-83
2023/11/03 09:50:34;;;;;;;7.72;1.80;;;;;;;8.80;76.68;95869.81;5069462;28;20032;-83
2023/11/03 09:53:00;;;;;;;6.68;1.70;;;;;;;8.75;76.40;95851.34;5091385;28;20028;-84
2023/11/03 09:55:27;;;;;;;5.72;2.25;;;;;;;8.83;76.58;95885.13;5089252;28;20642;-83
2023/11/03 09:58:01;;;;;;;4.65;1.83;;;;;;;8.70;76.86;95876.19;5069054;28;20510;-83
2023/11/03 10:00:27;;;;;;;5.07;1.88;;;;;;;8.79;76.02;95884.97;5084265;28;20026;-84
2023/11/03 10:02:53;;;;;;;5.28;1.50;;;;;;;8.83;76.28;95896.56;5089092;28;20031;-82
2023/11/03 10:05:18;;;;;;;7.00;1.90;;;;;;;8.85;76.56;95890.94;5073555;28;20028;-84
2023/11/03 10:08:04;;;;;;;3.15;1.70;;;;;;;8.81;76.88;95903.28;5084711;28;20059;-84
2023/11/03 10:10:30;;;;;;;15.07;3.35;;;;;;;8.91;76.80;95911.75;5090527;28;20099;-84
2023/11/03 10:12:57;;;;;;;5.60;2.25;;;;;;;8.95;76.19;95919.91;5070156;28;20067;-83
2023/11/03 10:15:24;;;;;;;4.57;1.60;;;;;;;8.97;75.82;95909.75;5087483;28;20067;-84
2023/11/03 10:17:50;;;;;;;3.70;1.17;;;;;;;8.96;76.24;95898.31;5089755;28;20035;-84
2023/11/03 10:20:20;;;;;;;2.78;1.30;;;;;;;8.99;76.27;95889.72;5095026;28;20028;-84
2023/11/03 10:22:47;;;;;;;3.55;1.63;;;;;;;8.97;75.96;95875.97;5073397;28;20079;-84
2023/11/03 10:25:14;;;;;;;7.95;3.95;;;;;;;9.06;75.60;95887.38;5090528;28;20028;-84
2023/11/03 10:27:39;;;;;;;5.85;1.92;;;;;;;8.89;75.92;95849.31;5087629;28;20123;-85
2023/11/03 10:30:06;;;;;;;8.77;2.13;;;;;;;9.12;75.94;95876.59;5086177;28;20024;-84
2023/11/03 10:32:35;;;;;;;7.45;1.77;;;;;;;9.11;75.38;95891.00;5092971;28;20027;-84
2023/11/03 10:35:02;;;;;;;6.97;1.90;;;;;;;9.22;74.77;95902.91;5094237;28;20024;-84
2023/11/03 10:37:29;;;;;;;4.63;1.83;;;;;;;9.21;74.47;95874.72;5094495;28;20097;-83
2023/11/03 10:39:55;;;;;;;9.48;1.67;;;;;;;9.18;74.97;95885.97;5089338;28;20110;-84
2023/11/03 10:42:23;;;;;;;6.13;2.33;;;;;;;9.25;75.03;95881.78;5071209;28;20107;-84
2023/11/03 10:44:56;;;;;;;9.13;1.95;;;;;;;9.25;74.46;95881.78;5083227;28;20382;-84
2023/11/03 10:47:26;;;;;;;11.00;3.40;;;;;;;9.24;75.22;95872.22;5116995;27;20023;-84
2023/11/03 10:50:00;;;;;;;8.00;1.90;;;;;;;9.39;74.77;95881.63;5081883;28;20035;-84
2023/11/03 10:52:28;;;;;;;4.25;2.13;;;;;;;9.42;74.79;95889.75;5088644;28;20032;-84
2023/11/03 10:55:14;;;;;;;6.82;2.13;;;;;;;9.32;74.88;95881.31;5075037;28;20036;-82
2023/11/03 10:57:41;;;;;;;7.22;1.77;;;;;;;9.68;74.56;95908.41;5099030;28;20025;-82
2023/11/03 11:00:19;;;;;;;8.63;1.90;;;;;;;9.64;74.77;95897.59;5080447;28;20036;-82
2023/11/03 11:02:51;;;;;;;4.82;2.20;;;;;;;9.58;74.91;95890.88;5086600;28;20027;-82
2023/11/03 11:05:40;;;;;;;8.70;2.00;;;;;;;9.67;73.48;95881.00;5073935;28;20074;-82
2023/11/03 11:08:08;;;;;;;14.93;2.30;;;;;;;9.79;73.37;95891.00;5092155;28;20106;-82
2023/11/03 11:10:38;;;;;;;9.77;2.35;;;;;;;9.80;74.51;95896.03;5093892;28;20028;-83
2023/11/03 11:13:06;;;;;;;5.72;2.20;;;;;;;9.74;74.18;95877.88;5089398;28;20507;-82
2023/11/03 11:15:31;;;;;;;3.78;2.00;;;;;;;10.02;73.51;95897.72;5064846;28;20456;-82
2023/11/03 11:18:13;;;;;;;6.97;2.22;;;;;;;9.94;73.49;95914.47;5087819;28;20035;-82
2023/11/03 11:20:40;;;;;;;8.77;1.70;;;;;;;10.12;73.14;95907.28;5110762;27;20353;-82
2023/11/03 11:23:07;;;;;;;8.30;1.65;;;;;;;10.23;73.01;95903.97;5088960;28;20024;-82
2023/11/03 11:25:36;;;;;;;8.20;1.63;;;;;;;10.12;72.73;95900.06;5088472;28;20035;-83
2023/11/03 11:28:02;;;;;;;12.60;2.30;;;;;;;10.20;73.60;95904.59;5074392;28;20029;-82
2023/11/03 11:30:33;;;;;;;6.40;2.03;;;;;;;10.41;72.37;95900.16;5070565;28;20046;-82
2023/11/03 11:32:58;;;;;;;10.90;2.30;;;;;;;10.41;72.55;95907.38;5087645;28;20087;-83
2023/11/03 11:35:25;;;;;;;4.90;1.98;;;;;;;10.32;72.57;95895.94;5088972;28;20111;-82
2023/11/03 11:37:50;;;;;;;6.00;1.98;;;;;;;10.36;72.93;95895.00;5092151;28;20040;-83